sensor_id;sensor_type;location;lat;lon;timestamp;pressure;altitude;pressure_sealevel;temperature;humidity
68489;BME280;55481;48.764;8.936;2023-09-08T00:02:26;97280;;;15.5;59
68489;BME280;55481;48.764;8.936;2023-09-08T00:04:56;97280;;;15.4;59.5
68489;BME280;55481;48.764;8.936;2023-09-08T00:07:39;97280;;;15.4;59.5
68489;BME280;55481;48.764;8.936;2023-09-08T00:10:09;97280;;;15.5;59
68489;BME280;55481;48.764;8.936;2023-09-08T00:12:38;97280;;;15.6;59
68489;BME280;55481;48.764;8.936;2023-09-08T00:17:28;97280;;;15.6;59
68489;BME280;55481;48.764;8.936;2023-09-08T00:20:05;97270;;;15.6;59
68489;BME280;55481;48.764;8.936;2023-09-08T00:22:29;97280;;;15.6;59
68489;BME280;55481;48.764;8.936;2023-09-08T00:25:02;97270;;;15.4;59.5
68489;BME280;55481;48.764;8.936;2023-09-08T00:27:32;97270;;;15.3;59.5
68489;BME280;55481;48.764;8.936;2023-09-08T00:30:12;97270;;;15.4;59.5
68489;BME280;55481;48.764;8.936;2023-09-08T00:32:42;97270;;;15.4;59.5
68489;BME280;55481;48.764;8.936;2023-09-08T00:35:12;97270;;;15.2;60
68489;BME280;55481;48.764;8.936;2023-09-08T00:37:42;97270;;;15.1;60.5
68489;BME280;55481;48.764;8.936;2023-09-08T00:40:12;97270;;;15.1;60.5
68489;BME280;55481;48.764;8.936;2023-09-08T00:42:51;97270;;;15.3;60
68489;BME280;55481;48.764;8.936;2023-09-08T00:45:22;97270;;;15.3;60
68489;BME280;55481;48.764;8.936;2023-09-08T00:55:22;97270;;;15.2;60
68489;BME280;55481;48.764;8.936;2023-09-08T00:57:54;97270;;;15.1;60.5
68489;BME280;55481;48.764;8.936;2023-09-08T01:00:13;97270;;;15.1;60.5
68489;BME280;55481;48.764;8.936;2023-09-08T01:02:43;97270;;;15.1;60.5
68489;BME280;55481;48.764;8.936;2023-09-08T01:07:56;97270;;;15;60.5
68489;BME280;55481;48.764;8.936;2023-09-08T01:10:27;97270;;;15;60.5
68489;BME280;55481;48.764;8.936;2023-09-08T01:12:57;97260;;;15;60.5
68489;BME280;55481;48.764;8.936;2023-09-08T01:15:27;97270;;;14.9;60.5
68489;BME280;55481;48.764;8.936;2023-09-08T01:17:56;97260;;;14.9;60.5
68489;BME280;55481;48.764;8.936;2023-09-08T01:20:19;97260;;;14.9;60.5
68489;BME280;55481;48.764;8.936;2023-09-08T01:22:51;97260;;;15;60.5
68489;BME280;55481;48.764;8.936;2023-09-08T01:25:12;97260;;;15;60.5
68489;BME280;55481;48.764;8.936;2023-09-08T01:27:37;97260;;;14.9;60.5
68489;BME280;55481;48.764;8.936;2023-09-08T01:37:40;97260;;;14.8;61
68489;BME280;55481;48.764;8.936;2023-09-08T01:40:17;97260;;;14.9;60.5
68489;BME280;55481;48.764;8.936;2023-09-08T01:42:40;97260;;;14.6;61
68489;BME280;55481;48.764;8.936;2023-09-08T01:45:11;97260;;;14.6;61
68489;BME280;55481;48.764;8.936;2023-09-08T01:47:41;97260;;;14.6;61
68489;BME280;55481;48.764;8.936;2023-09-08T01:50:12;97260;;;14.6;61
68489;BME280;55481;48.764;8.936;2023-09-08T01:53:06;97260;;;14.4;61.5
68489;BME280;55481;48.764;8.936;2023-09-08T01:55:36;97260;;;14.4;61.5
68489;BME280;55481;48.764;8.936;2023-09-08T01:58:06;97250;;;14.3;61.5
68489;BME280;55481;48.764;8.936;2023-09-08T02:00:37;97260;;;14.3;61.5
68489;BME280;55481;48.764;8.936;2023-09-08T02:03:07;97260;;;14.3;61.5
68489;BME280;55481;48.764;8.936;2023-09-08T02:05:47;97260;;;14.3;61.5
68489;BME280;55481;48.764;8.936;2023-09-08T02:08:08;97260;;;14.4;61.5
68489;BME280;55481;48.764;8.936;2023-09-08T02:10:44;97250;;;14.4;61.5
68489;BME280;55481;48.764;8.936;2023-09-08T02:13:10;97250;;;14.4;61.5
68489;BME280;55481;48.764;8.936;2023-09-08T02:15:41;97250;;;14.5;61.5
68489;BME280;55481;48.764;8.936;2023-09-08T02:18:08;97250;;;14.5;61.5
68489;BME280;55481;48.764;8.936;2023-09-08T02:20:47;97250;;;14.5;61.5
68489;BME280;55481;48.764;8.936;2023-09-08T02:23:03;97250;;;14.4;61.5
68489;BME280;55481;48.764;8.936;2023-09-08T02:27:49;97250;;;14.4;61.5
68489;BME280;55481;48.764;8.936;2023-09-08T02:30:22;97250;;;14.4;61.5
68489;BME280;55481;48.764;8.936;2023-09-08T02:35:22;97250;;;14.3;62
68489;BME280;55481;48.764;8.936;2023-09-08T02:37:52;97250;;;14.2;62
68489;BME280;55481;48.764;8.936;2023-09-08T02:40:22;97250;;;14.3;62
68489;BME280;55481;48.764;8.936;2023-09-08T02:42:53;97240;;;14.4;61.5
68489;BME280;55481;48.764;8.936;2023-09-08T02:45:23;97250;;;14.5;61.5
68489;BME280;55481;48.764;8.936;2023-09-08T02:48:05;97250;;;14.6;61.5
68489;BME280;55481;48.764;8.936;2023-09-08T02:50:34;97250;;;14.6;61
68489;BME280;55481;48.764;8.936;2023-09-08T02:53:04;97250;;;14.5;61.5
68489;BME280;55481;48.764;8.936;2023-09-08T02:57:54;97250;;;14.5;61.5
68489;BME280;55481;48.764;8.936;2023-09-08T03:00:25;97240;;;14.5;61.5
68489;BME280;55481;48.764;8.936;2023-09-08T03:02:55;97240;;;14.5;61.5
68489;BME280;55481;48.764;8.936;2023-09-08T03:05:26;97240;;;14.5;61.5
68489;BME280;55481;48.764;8.936;2023-09-08T03:07:56;97240;;;14.4;62
68489;BME280;55481;48.764;8.936;2023-09-08T03:13:08;97250;;;14.3;62
68489;BME280;55481;48.764;8.936;2023-09-08T03:15:39;97240;;;14.1;62.5
68489;BME280;55481;48.764;8.936;2023-09-08T03:18:18;97240;;;14.1;62.5
68489;BME280;55481;48.764;8.936;2023-09-08T03:20:49;97240;;;14.1;62.5
68489;BME280;55481;48.764;8.936;2023-09-08T03:23:09;97240;;;14.1;62.5
68489;BME280;55481;48.764;8.936;2023-09-08T03:27:58;97230;;;14.3;62
68489;BME280;55481;48.764;8.936;2023-09-08T03:30:29;97230;;;14.1;62
68489;BME280;55481;48.764;8.936;2023-09-08T03:32:59;97230;;;14.2;62
68489;BME280;55481;48.764;8.936;2023-09-08T03:35:30;97240;;;14.2;62
68489;BME280;55481;48.764;8.936;2023-09-08T03:45:52;97240;;;14.1;62
68489;BME280;55481;48.764;8.936;2023-09-08T03:48:13;97240;;;14.1;62
68489;BME280;55481;48.764;8.936;2023-09-08T03:50:43;97240;;;14.1;62
68489;BME280;55481;48.764;8.936;2023-09-08T03:53:02;97240;;;14;62.5
68489;BME280;55481;48.764;8.936;2023-09-08T03:55:56;97230;;;13.8;63
68489;BME280;55481;48.764;8.936;2023-09-08T03:58:26;97240;;;13.8;63
68489;BME280;55481;48.764;8.936;2023-09-08T04:03:17;97240;;;13.8;63
68489;BME280;55481;48.764;8.936;2023-09-08T04:05:47;97250;;;13.7;63
68489;BME280;55481;48.764;8.936;2023-09-08T04:08:17;97250;;;13.6;63.5
68489;BME280;55481;48.764;8.936;2023-09-08T04:10:57;97250;;;13.6;63.5
68489;BME280;55481;48.764;8.936;2023-09-08T04:13:26;97250;;;13.6;63.5
68489;BME280;55481;48.764;8.936;2023-09-08T04:18:06;97250;;;13.9;62.5
68489;BME280;55481;48.764;8.936;2023-09-08T04:20:37;97250;;;14;62.5
68489;BME280;55481;48.764;8.936;2023-09-08T04:28:08;97250;;;13.9;62.5
68489;BME280;55481;48.764;8.936;2023-09-08T04:30:40;97250;;;13.8;62.5
68489;BME280;55481;48.764;8.936;2023-09-08T04:35:51;97250;;;13.7;63
68489;BME280;55481;48.764;8.936;2023-09-08T04:38:21;97250;;;13.7;63
68489;BME280;55481;48.764;8.936;2023-09-08T04:40:53;97260;;;13.6;63
68489;BME280;55481;48.764;8.936;2023-09-08T04:46:03;97260;;;13.6;63.5
68489;BME280;55481;48.764;8.936;2023-09-08T04:51:04;97260;;;13.9;62.5
68489;BME280;55481;48.764;8.936;2023-09-08T04:53:44;97250;;;13.9;62.5
68489;BME280;55481;48.764;8.936;2023-09-08T04:55:54;97250;;;14;62.5
68489;BME280;55481;48.764;8.936;2023-09-08T04:58:33;97260;;;14.1;62
68489;BME280;55481;48.764;8.936;2023-09-08T05:00:54;97260;;;14.1;62
68489;BME280;55481;48.764;8.936;2023-09-08T05:03:24;97260;;;14.1;62
68489;BME280;55481;48.764;8.936;2023-09-08T05:10:44;97260;;;14.1;62.5
68489;BME280;55481;48.764;8.936;2023-09-08T05:16:16;97260;;;14.2;62
68489;BME280;55481;48.764;8.936;2023-09-08T05:18:39;97260;;;14.3;62
68489;BME280;55481;48.764;8.936;2023-09-08T05:21:17;97270;;;14.3;62
68489;BME280;55481;48.764;8.936;2023-09-08T05:23:48;97270;;;14.3;62
68489;BME280;55481;48.764;8.936;2023-09-08T05:31:20;97270;;;14.3;62.5
68489;BME280;55481;48.764;8.936;2023-09-08T05:33:41;97270;;;14.5;62
68489;BME280;55481;48.764;8.936;2023-09-08T05:38:32;97270;;;14.3;62.5
68489;BME280;55481;48.764;8.936;2023-09-08T05:41:02;97270;;;14.6;62
68489;BME280;55481;48.764;8.936;2023-09-08T05:43:31;97270;;;14.7;61.5
68489;BME280;55481;48.764;8.936;2023-09-08T05:48:21;97280;;;14.9;61.5
68489;BME280;55481;48.764;8.936;2023-09-08T05:50:51;97280;;;15.1;61
68489;BME280;55481;48.764;8.936;2023-09-08T05:53:22;97280;;;15.2;61
68489;BME280;55481;48.764;8.936;2023-09-08T05:55:53;97280;;;15.2;61
68489;BME280;55481;48.764;8.936;2023-09-08T05:58:23;97270;;;15.2;61
68489;BME280;55481;48.764;8.936;2023-09-08T06:00:53;97270;;;15.2;61
68489;BME280;55481;48.764;8.936;2023-09-08T06:03:24;97270;;;15.3;61
68489;BME280;55481;48.764;8.936;2023-09-08T06:13:47;97260;;;15.9;60
68489;BME280;55481;48.764;8.936;2023-09-08T06:16:07;97260;;;16.1;60
68489;BME280;55481;48.764;8.936;2023-09-08T06:23:26;97260;;;16.3;60
68489;BME280;55481;48.764;8.936;2023-09-08T06:28:27;97260;;;16.6;59.5
68489;BME280;55481;48.764;8.936;2023-09-08T06:30:59;97250;;;16.7;59.5
68489;BME280;55481;48.764;8.936;2023-09-08T06:33:29;97250;;;16.8;59.5
68489;BME280;55481;48.764;8.936;2023-09-08T06:35:59;97260;;;16.9;59.5
68489;BME280;55481;48.764;8.936;2023-09-08T06:38:40;97250;;;17.1;59
68489;BME280;55481;48.764;8.936;2023-09-08T06:41:11;97250;;;17.5;58.5
68489;BME280;55481;48.764;8.936;2023-09-08T06:46:00;97250;;;17.8;58
68489;BME280;55481;48.764;8.936;2023-09-08T06:58:33;97250;;;18.5;57.5
68489;BME280;55481;48.764;8.936;2023-09-08T07:01:03;97250;;;18.7;57.5
68489;BME280;55481;48.764;8.936;2023-09-08T07:13:35;97250;;;19.6;56.5
68489;BME280;55481;48.764;8.936;2023-09-08T07:16:06;97250;;;19.9;56.5
68489;BME280;55481;48.764;8.936;2023-09-08T07:18:48;97250;;;20;56
68489;BME280;55481;48.764;8.936;2023-09-08T07:21:18;97250;;;20.2;56
68489;BME280;55481;48.764;8.936;2023-09-08T07:26:18;97250;;;20.6;56
68489;BME280;55481;48.764;8.936;2023-09-08T07:28:48;97250;;;20.7;55.5
68489;BME280;55481;48.764;8.936;2023-09-08T07:31:18;97250;;;20.9;55.5
68489;BME280;55481;48.764;8.936;2023-09-08T07:38:38;97240;;;21.6;55
68489;BME280;55481;48.764;8.936;2023-09-08T07:41:12;97240;;;21.8;54.5
68489;BME280;55481;48.764;8.936;2023-09-08T07:46:41;97240;;;21.9;55
68489;BME280;55481;48.764;8.936;2023-09-08T07:49:12;97240;;;22.1;54.5
68489;BME280;55481;48.764;8.936;2023-09-08T07:51:22;97240;;;22.3;54
68489;BME280;55481;48.764;8.936;2023-09-08T07:53:52;97240;;;22.5;54
68489;BME280;55481;48.764;8.936;2023-09-08T07:56:22;97240;;;22.6;54
68489;BME280;55481;48.764;8.936;2023-09-08T07:58:52;97240;;;22.9;54
68489;BME280;55481;48.764;8.936;2023-09-08T08:01:22;97240;;;23.2;53.5
68489;BME280;55481;48.764;8.936;2023-09-08T08:04:03;97230;;;23.2;53.5
68489;BME280;55481;48.764;8.936;2023-09-08T08:06:34;97230;;;23.4;53.5
68489;BME280;55481;48.764;8.936;2023-09-08T08:11:24;97240;;;23.4;54
68489;BME280;55481;48.764;8.936;2023-09-08T08:13:55;97240;;;23.5;54
68489;BME280;55481;48.764;8.936;2023-09-08T08:21:38;97230;;;23.9;53.5
68489;BME280;55481;48.764;8.936;2023-09-08T08:24:08;97230;;;24.1;53.5
68489;BME280;55481;48.764;8.936;2023-09-08T08:29:08;97230;;;24.5;53
68489;BME280;55481;48.764;8.936;2023-09-08T08:33:58;97230;;;24.8;52.5
68489;BME280;55481;48.764;8.936;2023-09-08T08:39:10;97230;;;24.8;53
68489;BME280;55481;48.764;8.936;2023-09-08T08:41:41;97230;;;25.1;52.5
68489;BME280;55481;48.764;8.936;2023-09-08T08:46:31;97230;;;24.9;53
68489;BME280;55481;48.764;8.936;2023-09-08T08:49:03;97230;;;25.2;52.5
68489;BME280;55481;48.764;8.936;2023-09-08T08:54:12;97230;;;25.3;53
68489;BME280;55481;48.764;8.936;2023-09-08T08:56:36;97220;;;25.4;52.5
68489;BME280;55481;48.764;8.936;2023-09-08T08:59:02;97220;;;25.4;53
68489;BME280;55481;48.764;8.936;2023-09-08T09:01:32;97230;;;25;54
68489;BME280;55481;48.764;8.936;2023-09-08T09:04:05;97230;;;25.1;53.5
68489;BME280;55481;48.764;8.936;2023-09-08T09:06:22;97220;;;25.4;53
68489;BME280;55481;48.764;8.936;2023-09-08T09:13:53;97220;;;25.8;52.5
68489;BME280;55481;48.764;8.936;2023-09-08T09:16:24;97220;;;25.8;52.5
68489;BME280;55481;48.764;8.936;2023-09-08T09:18:56;97220;;;25.8;52.5
68489;BME280;55481;48.764;8.936;2023-09-08T09:24:07;97220;;;26;52.5
68489;BME280;55481;48.764;8.936;2023-09-08T09:26:38;97220;;;25.6;53
68489;BME280;55481;48.764;8.936;2023-09-08T09:29:17;97230;;;25.6;53
68489;BME280;55481;48.764;8.936;2023-09-08T09:31:40;97230;;;25.7;53
68489;BME280;55481;48.764;8.936;2023-09-08T09:34:07;97230;;;25.5;53.5
68489;BME280;55481;48.764;8.936;2023-09-08T09:36:39;97230;;;25.6;53.5
68489;BME280;55481;48.764;8.936;2023-09-08T09:41:27;97220;;;25.9;52.5
68489;BME280;55481;48.764;8.936;2023-09-08T09:43:58;97220;;;26;52.5
68489;BME280;55481;48.764;8.936;2023-09-08T09:46:28;97230;;;26.3;52
68489;BME280;55481;48.764;8.936;2023-09-08T09:48:59;97220;;;26.5;52
68489;BME280;55481;48.764;8.936;2023-09-08T09:51:28;97220;;;26.6;52
68489;BME280;55481;48.764;8.936;2023-09-08T09:53:58;97220;;;26.4;52
68489;BME280;55481;48.764;8.936;2023-09-08T09:56:30;97220;;;26.8;51.5
68489;BME280;55481;48.764;8.936;2023-09-08T09:59:12;97220;;;26.7;52
68489;BME280;55481;48.764;8.936;2023-09-08T10:01:41;97210;;;26.9;51.5
68489;BME280;55481;48.764;8.936;2023-09-08T10:04:11;97220;;;27;51.5
68489;BME280;55481;48.764;8.936;2023-09-08T10:06:50;97210;;;27;51.5
68489;BME280;55481;48.764;8.936;2023-09-08T10:12:04;97210;;;27.3;51
68489;BME280;55481;48.764;8.936;2023-09-08T10:14:35;97210;;;27.5;50.5
68489;BME280;55481;48.764;8.936;2023-09-08T10:19:13;97200;;;28.4;49.5
68489;BME280;55481;48.764;8.936;2023-09-08T10:24:15;97200;;;28.6;49
68489;BME280;55481;48.764;8.936;2023-09-08T10:31:33;97200;;;28.9;49
68489;BME280;55481;48.764;8.936;2023-09-08T10:36:57;97200;;;28.1;51
68489;BME280;55481;48.764;8.936;2023-09-08T10:39:37;97200;;;27.8;51.5
68489;BME280;55481;48.764;8.936;2023-09-08T10:41:47;97190;;;27.6;52
68489;BME280;55481;48.764;8.936;2023-09-08T10:44:17;97190;;;27.8;51.5
68489;BME280;55481;48.764;8.936;2023-09-08T10:46:48;97190;;;28;51
68489;BME280;55481;48.764;8.936;2023-09-08T10:49:17;97190;;;27.9;51
68489;BME280;55481;48.764;8.936;2023-09-08T10:51:48;97190;;;28;51
68489;BME280;55481;48.764;8.936;2023-09-08T10:54:49;97190;;;27.9;51.5
68489;BME280;55481;48.764;8.936;2023-09-08T10:59:08;97190;;;27.8;51.5
68489;BME280;55481;48.764;8.936;2023-09-08T11:01:38;97190;;;27.9;51.5
68489;BME280;55481;48.764;8.936;2023-09-08T11:04:08;97190;;;27.9;51.5
68489;BME280;55481;48.764;8.936;2023-09-08T11:06:39;97190;;;28;51
68489;BME280;55481;48.764;8.936;2023-09-08T11:09:10;97190;;;28.3;50.5
68489;BME280;55481;48.764;8.936;2023-09-08T11:11:40;97190;;;28.5;50.5
68489;BME280;55481;48.764;8.936;2023-09-08T11:14:10;97190;;;28.6;50
68489;BME280;55481;48.764;8.936;2023-09-08T11:16:52;97190;;;28.6;50
68489;BME280;55481;48.764;8.936;2023-09-08T11:19:23;97190;;;28.4;50.5
68489;BME280;55481;48.764;8.936;2023-09-08T11:21:52;97190;;;27.9;51.5
68489;BME280;55481;48.764;8.936;2023-09-08T11:24:32;97190;;;28.2;51
68489;BME280;55481;48.764;8.936;2023-09-08T11:29:12;97190;;;28.4;50.5
68489;BME280;55481;48.764;8.936;2023-09-08T11:32:06;97180;;;28.6;50.5
68489;BME280;55481;48.764;8.936;2023-09-08T11:34:36;97180;;;29;49.5
68489;BME280;55481;48.764;8.936;2023-09-08T11:37:08;97180;;;29.1;49.5
68489;BME280;55481;48.764;8.936;2023-09-08T11:39:37;97180;;;29;50
68489;BME280;55481;48.764;8.936;2023-09-08T11:44:36;97190;;;30.1;48.5
68489;BME280;55481;48.764;8.936;2023-09-08T11:46:57;97180;;;30.9;47.5
68489;BME280;55481;48.764;8.936;2023-09-08T11:54:40;97180;;;32.8;44.5
68489;BME280;55481;48.764;8.936;2023-09-08T11:57:10;97180;;;33;44
68489;BME280;55481;48.764;8.936;2023-09-08T11:59:41;97190;;;33.4;43.5
68489;BME280;55481;48.764;8.936;2023-09-08T12:02:11;97180;;;33.7;43.5
68489;BME280;55481;48.764;8.936;2023-09-08T12:04:30;97180;;;33.9;43.5
68489;BME280;55481;48.764;8.936;2023-09-08T12:07:03;97180;;;33.3;44.5
68489;BME280;55481;48.764;8.936;2023-09-08T12:09:40;97180;;;34;43.5
68489;BME280;55481;48.764;8.936;2023-09-08T12:11:50;97180;;;33.8;44
68489;BME280;55481;48.764;8.936;2023-09-08T12:14:20;97180;;;34.3;43.5
68489;BME280;55481;48.764;8.936;2023-09-08T12:16:54;97180;;;34.6;43
68489;BME280;55481;48.764;8.936;2023-09-08T12:19:29;97180;;;34.4;44
68489;BME280;55481;48.764;8.936;2023-09-08T12:24:56;97180;;;33.9;45
68489;BME280;55481;48.764;8.936;2023-09-08T12:26:53;97180;;;33.5;45.5
68489;BME280;55481;48.764;8.936;2023-09-08T12:29:23;97170;;;34.1;44.5
68489;BME280;55481;48.764;8.936;2023-09-08T12:34:24;97170;;;34.3;44.5
68489;BME280;55481;48.764;8.936;2023-09-08T12:36:55;97170;;;34.4;44.5
68489;BME280;55481;48.764;8.936;2023-09-08T12:39:45;97170;;;35;43
68489;BME280;55481;48.764;8.936;2023-09-08T12:42:06;97170;;;34.9;43.5
68489;BME280;55481;48.764;8.936;2023-09-08T12:47:09;97170;;;33.5;46
68489;BME280;55481;48.764;8.936;2023-09-08T12:49:38;97170;;;34.2;44.5
68489;BME280;55481;48.764;8.936;2023-09-08T12:52:08;97160;;;34.8;43.5
68489;BME280;55481;48.764;8.936;2023-09-08T12:54:38;97170;;;34.8;43.5
68489;BME280;55481;48.764;8.936;2023-09-08T12:57:08;97160;;;34.7;43.5
68489;BME280;55481;48.764;8.936;2023-09-08T12:59:38;97160;;;34.7;43.5
68489;BME280;55481;48.764;8.936;2023-09-08T13:02:17;97160;;;34.7;43.5
68489;BME280;55481;48.764;8.936;2023-09-08T13:04:47;97150;;;34.7;43.5
68489;BME280;55481;48.764;8.936;2023-09-08T13:07:08;97150;;;34.9;43
68489;BME280;55481;48.764;8.936;2023-09-08T13:09:38;97150;;;35.2;42.5
68489;BME280;55481;48.764;8.936;2023-09-08T13:12:10;97150;;;35.3;42.5
68489;BME280;55481;48.764;8.936;2023-09-08T13:14:38;97150;;;35.5;42
68489;BME280;55481;48.764;8.936;2023-09-08T13:17:09;97150;;;35.7;42
68489;BME280;55481;48.764;8.936;2023-09-08T13:19:38;97150;;;35.8;42
68489;BME280;55481;48.764;8.936;2023-09-08T13:24:27;97140;;;35.4;42.5
68489;BME280;55481;48.764;8.936;2023-09-08T13:26:59;97140;;;35.8;41.5
68489;BME280;55481;48.764;8.936;2023-09-08T13:29:28;97140;;;36.1;41
68489;BME280;55481;48.764;8.936;2023-09-08T13:32:00;97140;;;36.4;40.5
68489;BME280;55481;48.764;8.936;2023-09-08T13:34:30;97130;;;36.4;40.5
68489;BME280;55481;48.764;8.936;2023-09-08T13:37:01;97130;;;36.4;40.5
68489;BME280;55481;48.764;8.936;2023-09-08T13:39:31;97130;;;36.6;40
68489;BME280;55481;48.764;8.936;2023-09-08T13:42:01;97130;;;36.5;40
68489;BME280;55481;48.764;8.936;2023-09-08T13:44:37;97130;;;35.5;41.5
68489;BME280;55481;48.764;8.936;2023-09-08T13:52:03;97120;;;35.8;40.5
68489;BME280;55481;48.764;8.936;2023-09-08T13:57:36;97120;;;37;38.5
68489;BME280;55481;48.764;8.936;2023-09-08T14:02:28;97120;;;37.8;37.5
68489;BME280;55481;48.764;8.936;2023-09-08T14:05:17;97120;;;37.8;37.5
68489;BME280;55481;48.764;8.936;2023-09-08T14:09:49;97120;;;37.8;37.5
68489;BME280;55481;48.764;8.936;2023-09-08T14:12:18;97120;;;37.4;38
68489;BME280;55481;48.764;8.936;2023-09-08T14:14:49;97120;;;37.7;37.5
68489;BME280;55481;48.764;8.936;2023-09-08T14:17:19;97120;;;37.8;37.5
68489;BME280;55481;48.764;8.936;2023-09-08T14:25:02;97120;;;37.1;38
68489;BME280;55481;48.764;8.936;2023-09-08T14:27:33;97110;;;37.6;37.5
68489;BME280;55481;48.764;8.936;2023-09-08T14:30:12;97110;;;37.9;37
68489;BME280;55481;48.764;8.936;2023-09-08T14:35:06;97110;;;38.6;35.5
68489;BME280;55481;48.764;8.936;2023-09-08T14:37:34;97120;;;38.3;36
68489;BME280;55481;48.764;8.936;2023-09-08T14:42:35;97120;;;35.1;40.5
68489;BME280;55481;48.764;8.936;2023-09-08T14:45:15;97120;;;34.6;41
68489;BME280;55481;48.764;8.936;2023-09-08T14:47:37;97120;;;34.4;41.5
68489;BME280;55481;48.764;8.936;2023-09-08T14:50:07;97120;;;34.8;40.5
68489;BME280;55481;48.764;8.936;2023-09-08T14:52:38;97120;;;34.4;41
68489;BME280;55481;48.764;8.936;2023-09-08T14:55:18;97120;;;34.4;41
68489;BME280;55481;48.764;8.936;2023-09-08T14:57:39;97100;;;35.3;39.5
68489;BME280;55481;48.764;8.936;2023-09-08T15:02:38;97110;;;35.9;38
68489;BME280;55481;48.764;8.936;2023-09-08T15:04:59;97110;;;35.8;38
68489;BME280;55481;48.764;8.936;2023-09-08T15:07:29;97110;;;35.8;38
68489;BME280;55481;48.764;8.936;2023-09-08T15:09:59;97110;;;35.6;38
68489;BME280;55481;48.764;8.936;2023-09-08T15:14:48;97120;;;33.4;41
68489;BME280;55481;48.764;8.936;2023-09-08T15:17:19;97120;;;31.9;43.5
68489;BME280;55481;48.764;8.936;2023-09-08T15:19:49;97120;;;31.6;43.5
68489;BME280;55481;48.764;8.936;2023-09-08T15:27:21;97120;;;30.7;43.5
68489;BME280;55481;48.764;8.936;2023-09-08T15:29:52;97120;;;30.5;43.5
68489;BME280;55481;48.764;8.936;2023-09-08T15:37:34;97120;;;29.8;44
68489;BME280;55481;48.764;8.936;2023-09-08T15:40:05;97120;;;29.6;44
68489;BME280;55481;48.764;8.936;2023-09-08T15:44:53;97110;;;29.2;44.5
68489;BME280;55481;48.764;8.936;2023-09-08T15:54:56;97120;;;28.3;45.5
68489;BME280;55481;48.764;8.936;2023-09-08T15:57:27;97110;;;28.2;45.5
68489;BME280;55481;48.764;8.936;2023-09-08T15:59:57;97110;;;28.1;45.5
68489;BME280;55481;48.764;8.936;2023-09-08T16:02:28;97120;;;28.1;45
68489;BME280;55481;48.764;8.936;2023-09-08T16:04:58;97120;;;28;45.5
68489;BME280;55481;48.764;8.936;2023-09-08T16:07:28;97120;;;28;45
68489;BME280;55481;48.764;8.936;2023-09-08T16:09:59;97110;;;27.7;45.5
68489;BME280;55481;48.764;8.936;2023-09-08T16:12:40;97110;;;27.7;45.5
68489;BME280;55481;48.764;8.936;2023-09-08T16:15:11;97110;;;27.7;45.5
68489;BME280;55481;48.764;8.936;2023-09-08T16:17:41;97110;;;27.6;45.5
68489;BME280;55481;48.764;8.936;2023-09-08T16:22:30;97110;;;27.5;45.5
68489;BME280;55481;48.764;8.936;2023-09-08T16:25:01;97110;;;27.4;45.5
68489;BME280;55481;48.764;8.936;2023-09-08T16:30:13;97110;;;27.3;45.5
68489;BME280;55481;48.764;8.936;2023-09-08T16:32:43;97110;;;27.3;45.5
68489;BME280;55481;48.764;8.936;2023-09-08T16:35:13;97110;;;27.2;46
68489;BME280;55481;48.764;8.936;2023-09-08T16:37:32;97100;;;27.1;46
68489;BME280;55481;48.764;8.936;2023-09-08T16:40:03;97110;;;27;46
68489;BME280;55481;48.764;8.936;2023-09-08T16:47:35;97110;;;26.7;46.5
68489;BME280;55481;48.764;8.936;2023-09-08T16:50:06;97110;;;26.7;46
68489;BME280;55481;48.764;8.936;2023-09-08T16:52:36;97110;;;26.7;46
68489;BME280;55481;48.764;8.936;2023-09-08T16:55:07;97110;;;26.7;46
68489;BME280;55481;48.764;8.936;2023-09-08T16:57:37;97110;;;26.7;46
68489;BME280;55481;48.764;8.936;2023-09-08T17:00:08;97110;;;26.6;46
68489;BME280;55481;48.764;8.936;2023-09-08T17:02:38;97110;;;26.5;46
68489;BME280;55481;48.764;8.936;2023-09-08T17:05:19;97120;;;26.5;46.5
68489;BME280;55481;48.764;8.936;2023-09-08T17:07:49;97120;;;26.4;46.5
68489;BME280;55481;48.764;8.936;2023-09-08T17:12:51;97120;;;26.2;46.5
68489;BME280;55481;48.764;8.936;2023-09-08T17:15:21;97120;;;26.2;46.5
68489;BME280;55481;48.764;8.936;2023-09-08T17:17:50;97120;;;26.1;46.5
68489;BME280;55481;48.764;8.936;2023-09-08T17:23:03;97130;;;26;47
68489;BME280;55481;48.764;8.936;2023-09-08T17:25:32;97130;;;25.9;47
68489;BME280;55481;48.764;8.936;2023-09-08T17:28:03;97130;;;25.8;47
68489;BME280;55481;48.764;8.936;2023-09-08T17:30:33;97130;;;25.7;47
68489;BME280;55481;48.764;8.936;2023-09-08T17:33:02;97130;;;25.6;47.5
68489;BME280;55481;48.764;8.936;2023-09-08T17:35:23;97130;;;25.6;47.5
68489;BME280;55481;48.764;8.936;2023-09-08T17:37:52;97120;;;25.5;47.5
68489;BME280;55481;48.764;8.936;2023-09-08T17:40:22;97130;;;25.4;47.5
68489;BME280;55481;48.764;8.936;2023-09-08T17:42:54;97130;;;25.2;48
68489;BME280;55481;48.764;8.936;2023-09-08T17:47:42;97130;;;25;48
68489;BME280;55481;48.764;8.936;2023-09-08T17:55:14;97140;;;24.4;49
68489;BME280;55481;48.764;8.936;2023-09-08T17:57:45;97140;;;24.2;49
68489;BME280;55481;48.764;8.936;2023-09-08T18:00:15;97140;;;24;49.5
68489;BME280;55481;48.764;8.936;2023-09-08T18:02:47;97140;;;23.8;50
68489;BME280;55481;48.764;8.936;2023-09-08T18:05:16;97140;;;23.7;50
68489;BME280;55481;48.764;8.936;2023-09-08T18:07:58;97150;;;23.5;50
68489;BME280;55481;48.764;8.936;2023-09-08T18:10:28;97150;;;23.5;50
68489;BME280;55481;48.764;8.936;2023-09-08T18:12:58;97150;;;23.3;50.5
68489;BME280;55481;48.764;8.936;2023-09-08T18:15:28;97150;;;23.2;50.5
68489;BME280;55481;48.764;8.936;2023-09-08T18:17:58;97150;;;23.2;50.5
68489;BME280;55481;48.764;8.936;2023-09-08T18:20:28;97150;;;23.1;50.5
68489;BME280;55481;48.764;8.936;2023-09-08T18:25:40;97150;;;23.1;50.5
68489;BME280;55481;48.764;8.936;2023-09-08T18:28:19;97160;;;23;50.5
68489;BME280;55481;48.764;8.936;2023-09-08T18:33:00;97160;;;22.8;51
68489;BME280;55481;48.764;8.936;2023-09-08T18:35:30;97160;;;22.5;51.5
68489;BME280;55481;48.764;8.936;2023-09-08T18:38:01;97170;;;22.4;51.5
68489;BME280;55481;48.764;8.936;2023-09-08T18:40:30;97170;;;22.3;51.5
68489;BME280;55481;48.764;8.936;2023-09-08T18:50:22;97180;;;21.9;52
68489;BME280;55481;48.764;8.936;2023-09-08T18:52:52;97180;;;21.8;52.5
68489;BME280;55481;48.764;8.936;2023-09-08T18:55:23;97180;;;21.8;52.5
68489;BME280;55481;48.764;8.936;2023-09-08T19:00:35;97180;;;21.9;52
68489;BME280;55481;48.764;8.936;2023-09-08T19:03:05;97180;;;21.9;52